Local and Regional Airport Weather



KPVE - Beech River Regional Airport
Distance from station: NW 4mi, 6km
Updated: Wed, Aug-23-2017 4:35am CDT
Mist, Overcast
Mist, Overcast
 Wind from calm
Wind: Calm
Temperature: 70°F , 21°C
Dew Point: 70°F , 21°C
Humidity: 100%
Barometer: 30.00 inHg , 1015.9 hPa
Summary: Mist
Clouds: Overcast
Visibility: 3/4 mile , 5 km
Cloud details: Mostly cloudy 300 ft
Overcast 3000 ft
2017/08/23 09:35 KPVE 230935Z AUTO 00000KT 3/4SM BR BKN003 OVC030 21/21 A3000 RMK A01
KSNH - Savannah Hardin Co. Airport
Distance from station: S 34mi, 54km
Updated: Wed, Aug-23-2017 4:35am CDT
Mist, Overcast
Mist, Overcast
 Wind from NE
Wind: NE 3 mph , 6 km/h
Temperature: 72°F , 22°C
Dew Point: 72°F , 22°C
Humidity: 100%
Barometer: 30.00 inHg , 1015.9 hPa
Summary: Mist
Clouds: Overcast
Visibility: 3/4 mile , 5 km
Cloud details: Overcast 300 ft
2017/08/23 09:35 KSNH 230935Z AUTO 04003KT 3/4SM BR OVC003 22/22 A3000 RMK A01
 
KMKL - McKellar-Sipes Regional Airport
Distance from station: W 44mi, 72km
Updated: Wed, Aug-23-2017 4:49am CDT
Mist, Clear
Mist, Clear
 Wind from calm
Wind: Calm
Temperature: 68°F , 20°C
Dew Point: 68°F , 20°C
Humidity: 100%
Barometer: 30.02 inHg , 1016.6 hPa
Summary: Mist
Clouds: Clear
Visibility: 3 miles , 5 km
2017/08/23 09:49 KMKL 230949Z AUTO 00000KT 3SM BR CLR 20/20 A3002 RMK AO2
KMSL - NW Alabama Regional Airport
Distance from station: SE 78mi, 126km
Updated: Wed, Aug-23-2017 3:53am CDT
Clear
Clear
 Wind from NNW
Wind: NNW 3 mph , 6 km/h
Temperature: 72°F , 22°C
Dew Point: 70°F , 21°C
Humidity: 94%
Barometer: 30.01 inHg , 1016.3 hPa
Clouds: Clear
Visibility: 10 miles , 16 km
2017/08/23 08:53 KMSL 230853Z AUTO 34003KT 10SM CLR 22/21 A3001 RMK AO2 SLP154 6//// T02220206 53002 PNO $
 
KBNA - Nashville International Airport
Distance from station: NE 97mi, 157km
Updated: Wed, Aug-23-2017 3:53am CDT
Mostly cloudy
Mostly cloudy
 Wind from NNW
Wind: NNW 8 mph , 13 km/h
Temperature: 72°F , 22°C
Dew Point: 70°F , 21°C
Humidity: 94%
Barometer: 30.00 inHg , 1015.9 hPa
Clouds: Mostly cloudy
Visibility: 10 miles , 16 km
Cloud details: Few Clouds 700 ft
Partly cloudy 1100 ft
Mostly cloudy 2200 ft
2017/08/23 08:53 KBNA 230853Z 33007KT 10SM FEW007 SCT011 BKN022 22/21 A3000 RMK AO2 SLP151 T02220206 55005
KMEM - Memphis International Airport
Distance from station: W 108mi, 173km
Updated: Wed, Aug-23-2017 3:54am CDT
Partly cloudy
Partly cloudy
 Wind from NNW
Wind: NNW 5 mph , 7 km/h
Temperature: 75°F , 24°C
Dew Point: 72°F , 22°C
Humidity: 89%
Barometer: 30.00 inHg , 1015.9 hPa
Clouds: Partly cloudy
Visibility: 10 miles , 16 km
Cloud details: Few Clouds 3500 ft
Partly cloudy 25000 ft
2017/08/23 08:54 KMEM 230854Z 33004KT 10SM FEW035 SCT250 24/22 A3000 RMK AO2 SLP152 T02440222 55012
 
KTYS - Knoxville McGhee Tyson Airport
Distance from station: E 234mi, 377km
Updated: Wed, Aug-23-2017 4:30am CDT
Overcast
Overcast
 Wind from WSW
Wind: WSW 8 mph , 13 km/h
Temperature: 75°F , 24°C
Dew Point: 70°F , 21°C
Humidity: 83%
Barometer: 29.95 inHg , 1014.2 hPa
Clouds: Overcast
Visibility: 10 miles , 16 km
Cloud details: Mostly cloudy 3100 ft
Mostly cloudy 3500 ft
Overcast 4400 ft
2017/08/23 09:30 KTYS 230930Z 24007KT 10SM BKN031 BKN035 OVC044 24/21 A2995 RMK AO2 T02390206
KSTL - St. Louis International Airport
Distance from station: NW 247mi, 398km
Updated: Wed, Aug-23-2017 4:51am CDT
Clear
Clear
 Wind from NW
Wind: NW 3 mph , 6 km/h
Temperature: 61°F , 16°C
Dew Point: 57°F , 14°C
Humidity: 88%
Barometer: 30.09 inHg , 1019 hPa
Clouds: Clear
Visibility: 10 miles , 16 km
2017/08/23 09:51 KSTL 230951Z 31003KT 10SM CLR 16/14 A3009 RMK AO2 SLP180 T01610139

Refresh Page for latest data.